createdAt,value
2022-08-19T00:02:18.689Z,100077.25
2022-08-19T00:04:48.996Z,100072.44
2022-08-19T00:07:16.953Z,100074.00
2022-08-19T00:09:44.565Z,100069.63
2022-08-19T00:12:12.741Z,100066.75
2022-08-19T00:14:41.876Z,100071.56
2022-08-19T00:17:10.434Z,100069.03
2022-08-19T00:19:38.557Z,100072.78
2022-08-19T00:22:06.806Z,100069.63
2022-08-19T00:24:34.460Z,100069.88
2022-08-19T00:27:25.840Z,100059.47
2022-08-19T00:29:52.520Z,100064.19
2022-08-19T00:32:21.284Z,100068.88
2022-08-19T00:34:49.035Z,100074.44
2022-08-19T00:37:16.890Z,100072.97
2022-08-19T00:39:44.625Z,100080.72
2022-08-19T00:42:15.063Z,100075.63
2022-08-19T00:44:44.176Z,100079.25
2022-08-19T00:47:14.261Z,100086.53
2022-08-19T00:49:52.214Z,100084.94
2022-08-19T00:52:29.966Z,100082.63
2022-08-19T00:54:59.452Z,100084.78
2022-08-19T00:57:38.284Z,100080.69
2022-08-19T01:00:12.514Z,100077.19
2022-08-19T01:02:41.617Z,100084.31
2022-08-19T01:05:22.289Z,100084.78
2022-08-19T01:07:51.936Z,100085.25
2022-08-19T01:10:24.115Z,100080.78
2022-08-19T01:12:53.405Z,100083.06
2022-08-19T01:15:27.614Z,100089.00
2022-08-19T01:17:56.121Z,100083.28
2022-08-19T01:20:26.070Z,100079.91
2022-08-19T01:22:59.490Z,100085.22
2022-08-19T01:25:35.854Z,100087.13
2022-08-19T01:28:11.101Z,100089.28
2022-08-19T01:30:39.392Z,100088.09
2022-08-19T01:33:12.191Z,100087.38
2022-08-19T01:35:40.877Z,100085.44
2022-08-19T01:38:19.731Z,100087.59
2022-08-19T01:40:47.589Z,100082.06
2022-08-19T01:43:16.103Z,100088.09
2022-08-19T01:45:43.873Z,100088.38
2022-08-19T01:48:12.969Z,100092.72
2022-08-19T01:50:40.589Z,100097.34
2022-08-19T01:53:12.819Z,100091.91
2022-08-19T01:55:44.278Z,100088.53
2022-08-19T01:58:25.694Z,100091.91
2022-08-19T02:00:53.498Z,100089.59
2022-08-19T02:03:21.331Z,100091.84
2022-08-19T02:05:49.534Z,100092.75
2022-08-19T02:08:17.427Z,100082.13
2022-08-19T02:10:45.960Z,100087.44
2022-08-19T02:13:14.482Z,100084.53
2022-08-19T02:15:42.587Z,100080.69
2022-08-19T02:18:10.619Z,100072.09
2022-08-19T02:20:39.586Z,100070.75
2022-08-19T02:23:13.978Z,100069.78
2022-08-19T02:25:46.119Z,100069.56
2022-08-19T02:28:18.387Z,100063.97
2022-08-19T02:30:48.342Z,100062.28
2022-08-19T02:33:16.534Z,100061.06
2022-08-19T02:35:46.627Z,100066.56
2022-08-19T02:38:27.272Z,100063.75
2022-08-19T02:41:10.973Z,100069.69
2022-08-19T02:43:39.703Z,100067.91
2022-08-19T02:46:29.763Z,100071.84
2022-08-19T02:49:01.648Z,100066.56
2022-08-19T02:51:34.463Z,100068.75
2022-08-19T02:54:03.169Z,100071.50
2022-08-19T02:56:31.828Z,100069.94
2022-08-19T02:58:59.690Z,100070.72
2022-08-19T03:01:33.387Z,100074.22
2022-08-19T03:04:05.398Z,100073.84
2022-08-19T03:06:33.050Z,100080.09
2022-08-19T03:09:00.762Z,100078.81
2022-08-19T03:11:33.278Z,100074.56
2022-08-19T03:14:02.989Z,100073.28
2022-08-19T03:16:33.471Z,100077.38
2022-08-19T03:19:02.775Z,100077.66
2022-08-19T03:21:33.521Z,100077.66
2022-08-19T03:24:08.121Z,100068.06
2022-08-19T03:26:39.160Z,100067.84
2022-08-19T03:29:07.258Z,100078.38
2022-08-19T03:31:45.481Z,100073.19
2022-08-19T03:34:29.921Z,100069.94
2022-08-19T03:37:04.491Z,100077.06
2022-08-19T03:39:32.363Z,100074.19
2022-08-19T03:42:45.395Z,100075.97
2022-08-19T03:44:51.584Z,100066.47
2022-08-19T03:47:19.385Z,100065.97
2022-08-19T03:49:47.304Z,100070.69
2022-08-19T03:52:15.411Z,100069.34
2022-08-19T03:54:43.174Z,100083.00
2022-08-19T03:57:11.353Z,100092.41
2022-08-19T03:59:39.680Z,100086.13
2022-08-19T04:02:12.556Z,100084.09
2022-08-19T04:04:44.190Z,100084.47
2022-08-19T04:07:16.703Z,100086.53
2022-08-19T04:09:44.740Z,100095.00
2022-08-19T04:12:12.623Z,100088.72
2022-08-19T04:14:40.582Z,100096.47
2022-08-19T04:17:08.846Z,100095.50
2022-08-19T04:19:37.535Z,100092.59
2022-08-19T04:22:05.707Z,100094.75
2022-08-19T04:24:35.762Z,100092.06
2022-08-19T04:27:04.083Z,100091.31
2022-08-19T04:29:31.961Z,100088.16
2022-08-19T04:32:08.966Z,100084.41
2022-08-19T04:35:02.802Z,100087.88
2022-08-19T04:37:31.838Z,100083.66
2022-08-19T04:40:23.439Z,100087.91
2022-08-19T04:42:51.395Z,100095.59
2022-08-19T04:45:19.018Z,100098.47
2022-08-19T04:47:58.975Z,100094.56
2022-08-19T04:50:43.861Z,100101.25
2022-08-19T04:53:12.741Z,100096.97
2022-08-19T04:55:42.585Z,100092.56
2022-08-19T04:58:10.312Z,100086.56
2022-08-19T05:00:40.953Z,100081.69
2022-08-19T05:03:09.489Z,100080.81
2022-08-19T05:05:44.462Z,100093.91
2022-08-19T05:08:15.239Z,100093.66
2022-08-19T05:10:43.189Z,100091.53
2022-08-19T05:13:11.891Z,100096.06
2022-08-19T05:15:39.727Z,100090.69
2022-08-19T05:18:26.131Z,100094.19
2022-08-19T05:21:12.623Z,100095.00
2022-08-19T05:23:41.479Z,100089.31
2022-08-19T05:26:11.462Z,100089.16
2022-08-19T05:28:39.169Z,100097.09
2022-08-19T05:31:06.790Z,100100.66
2022-08-19T05:33:34.658Z,100101.44
2022-08-19T05:36:03.875Z,100117.50
2022-08-19T05:38:31.500Z,100109.41
2022-08-19T05:40:59.402Z,100105.81
2022-08-19T05:43:27.076Z,100114.69
2022-08-19T05:45:54.711Z,100119.50
2022-08-19T05:48:22.483Z,100127.63
2022-08-19T05:50:51.273Z,100132.47
2022-08-19T05:53:20.806Z,100138.91
2022-08-19T05:55:48.638Z,100137.50
2022-08-19T05:58:16.361Z,100134.13
2022-08-19T06:00:46.075Z,100127.97
2022-08-19T06:03:14.020Z,100125.34
2022-08-19T06:05:49.477Z,100130.00
2022-08-19T06:08:20.839Z,100128.00
2022-08-19T06:11:24.910Z,100134.19
2022-08-19T06:13:59.769Z,100128.53
2022-08-19T06:16:29.018Z,100133.66
2022-08-19T06:18:58.047Z,100119.88
2022-08-19T06:21:28.284Z,100122.38
2022-08-19T06:23:57.740Z,100124.78
2022-08-19T06:26:27.454Z,100118.66
2022-08-19T06:28:55.455Z,100126.22
2022-08-19T06:31:29.140Z,100129.56
2022-08-19T06:33:57.049Z,100131.06
2022-08-19T06:36:32.231Z,100132.00
2022-08-19T06:39:05.236Z,100117.16
2022-08-19T06:41:39.468Z,100127.38
2022-08-19T06:44:13.286Z,100125.47
2022-08-19T06:46:42.358Z,100134.91
2022-08-19T06:49:14.597Z,100126.59
2022-08-19T06:51:48.693Z,100131.13
2022-08-19T06:54:19.812Z,100130.97
2022-08-19T06:56:48.602Z,100130.97
2022-08-19T06:59:23.277Z,100123.09
2022-08-19T07:01:54.067Z,100125.94
2022-08-19T07:04:33.716Z,100132.66
2022-08-19T07:07:20.343Z,100137.41
2022-08-19T07:09:51.614Z,100140.97
2022-08-19T07:12:27.175Z,100136.63
2022-08-19T07:14:54.777Z,100139.75
2022-08-19T07:17:22.474Z,100135.28
2022-08-19T07:19:51.278Z,100139.22
2022-08-19T07:22:24.180Z,100134.53
2022-08-19T07:24:53.597Z,100135.00
2022-08-19T07:27:24.143Z,100137.56
2022-08-19T07:29:57.097Z,100151.72
2022-08-19T07:32:29.046Z,100145.31
2022-08-19T07:34:57.561Z,100139.75
2022-08-19T07:37:32.521Z,100141.06
2022-08-19T07:40:02.352Z,100127.31
2022-08-19T07:42:30.879Z,100130.25
2022-08-19T07:44:59.866Z,100129.38
2022-08-19T07:47:48.758Z,100131.66
2022-08-19T07:50:19.542Z,100131.16
2022-08-19T07:52:49.141Z,100131.66
2022-08-19T07:55:41.264Z,100144.63
2022-08-19T07:58:11.159Z,100144.38
2022-08-19T08:00:39.251Z,100137.44
2022-08-19T08:03:07.225Z,100134.75
2022-08-19T08:05:54.017Z,100134.78
2022-08-19T08:08:36.547Z,100134.81
2022-08-19T08:11:07.797Z,100140.38
2022-08-19T08:13:36.519Z,100138.81
2022-08-19T08:16:10.272Z,100139.13
2022-08-19T08:18:43.366Z,100126.03
2022-08-19T08:21:18.826Z,100139.50
2022-08-19T08:23:46.499Z,100130.09
2022-08-19T08:26:16.100Z,100128.28
2022-08-19T08:28:47.728Z,100132.09
2022-08-19T08:31:16.005Z,100126.50
2022-08-19T08:33:43.590Z,100127.88
2022-08-19T08:36:12.520Z,100123.94
2022-08-19T08:38:41.860Z,100123.19
2022-08-19T08:41:29.127Z,100128.50
2022-08-19T08:43:58.454Z,100140.56
2022-08-19T08:46:37.393Z,100132.84
2022-08-19T08:49:11.380Z,100127.28
2022-08-19T08:51:44.761Z,100126.44
2022-08-19T08:54:19.759Z,100125.44
2022-08-19T08:56:50.443Z,100127.94
2022-08-19T08:59:35.944Z,100121.22
2022-08-19T09:02:03.807Z,100122.13
2022-08-19T09:04:31.935Z,100128.09
2022-08-19T09:07:35.208Z,100137.31
2022-08-19T09:10:17.669Z,100142.81
2022-08-19T09:13:01.016Z,100143.53
2022-08-19T09:15:40.369Z,100144.41
2022-08-19T09:18:15.380Z,100141.47
2022-08-19T09:20:50.309Z,100142.75
2022-08-19T09:23:18.062Z,100145.22
2022-08-19T09:25:54.919Z,100137.72
2022-08-19T09:28:27.217Z,100140.06
2022-08-19T09:30:55.091Z,100142.06
2022-08-19T09:33:23.500Z,100131.66
2022-08-19T09:35:53.844Z,100127.78
2022-08-19T09:38:22.749Z,100124.69
2022-08-19T09:40:51.268Z,100134.16
2022-08-19T09:43:33.176Z,100137.03
2022-08-19T09:46:03.547Z,100142.03
2022-08-19T09:48:31.260Z,100140.72
2022-08-19T09:51:05.430Z,100144.88
2022-08-19T09:53:33.410Z,100139.06
2022-08-19T09:56:04.060Z,100138.50
2022-08-19T09:58:33.069Z,100135.22
2022-08-19T10:01:02.724Z,100138.84
2022-08-19T10:03:32.383Z,100141.50
2022-08-19T10:06:02.593Z,100139.66
2022-08-19T10:08:35.134Z,100140.41
2022-08-19T10:11:28.048Z,100132.44
2022-08-19T10:13:53.267Z,100134.75
2022-08-19T10:16:28.574Z,100133.41
2022-08-19T10:18:59.298Z,100125.75
2022-08-19T10:21:31.983Z,100128.13
2022-08-19T10:24:04.710Z,100114.41
2022-08-19T10:26:37.989Z,100114.78
2022-08-19T10:29:09.179Z,100103.63
2022-08-19T10:32:01.016Z,100106.72
2022-08-19T10:34:28.525Z,100096.91
2022-08-19T10:37:01.176Z,100103.72
2022-08-19T10:39:42.455Z,100106.31
2022-08-19T10:42:12.667Z,100096.91
2022-08-19T10:44:40.924Z,100096.50
2022-08-19T10:47:24.641Z,100086.25
2022-08-19T10:50:14.572Z,100089.75
2022-08-19T10:52:49.739Z,100086.22
2022-08-19T10:55:41.240Z,100091.16
2022-08-19T10:58:17.336Z,100099.31
2022-08-19T11:00:51.774Z,100105.38
2022-08-19T11:03:19.648Z,100087.41
2022-08-19T11:05:47.632Z,100084.53
2022-08-19T11:08:23.464Z,100086.16
2022-08-19T11:10:57.778Z,100087.41
2022-08-19T11:13:26.012Z,100081.63
2022-08-19T11:16:08.210Z,100079.53
2022-08-19T11:18:41.270Z,100072.88
2022-08-19T11:21:34.175Z,100068.72
2022-08-19T11:24:07.119Z,100065.38
2022-08-19T11:26:37.324Z,100072.47
2022-08-19T11:29:07.068Z,100065.38
2022-08-19T11:31:37.122Z,100070.16
2022-08-19T11:34:09.063Z,100056.59
2022-08-19T11:36:40.292Z,100062.22
2022-08-19T11:39:10.668Z,100054.50
2022-08-19T11:41:38.329Z,100049.91
2022-08-19T11:44:06.731Z,100057.44
2022-08-19T11:46:34.983Z,100054.09
2022-08-19T11:49:04.331Z,100058.28
2022-08-19T11:51:32.628Z,100055.78
2022-08-19T11:54:01.624Z,100046.78
2022-08-19T11:56:29.548Z,100043.22
2022-08-19T11:58:57.879Z,100050.31
2022-08-19T12:01:27.371Z,100045.75
2022-08-19T12:03:57.530Z,100035.31
2022-08-19T12:06:30.048Z,100033.63
2022-08-19T12:09:03.402Z,100033.22
2022-08-19T12:11:34.720Z,100023.63
2022-08-19T12:14:03.069Z,100017.34
2022-08-19T12:16:33.590Z,100023.63
2022-08-19T12:19:05.029Z,100013.19
2022-08-19T12:21:35.889Z,100015.88
2022-08-19T12:24:07.810Z,100022.78
2022-08-19T12:26:52.615Z,100012.97
2022-08-19T12:29:23.842Z,100004.81
2022-08-19T12:31:52.595Z,100001.69
2022-08-19T12:34:21.132Z,99999.19
2022-08-19T12:36:50.436Z,100006.91
2022-08-19T12:39:18.883Z,100001.91
2022-08-19T12:41:51.506Z,100006.50
2022-08-19T12:44:27.687Z,99998.16
2022-08-19T12:47:00.788Z,100001.28
2022-08-19T12:49:52.567Z,99988.53
2022-08-19T12:52:26.093Z,99981.88
2022-08-19T12:54:55.541Z,99983.13
2022-08-19T12:57:32.263Z,99985.41
2022-08-19T13:00:13.535Z,99989.81
2022-08-19T13:02:45.144Z,99980.81
2022-08-19T13:05:16.874Z,99980.00
2022-08-19T13:07:45.020Z,99979.56
2022-08-19T13:10:16.489Z,99972.47
2022-08-19T13:12:45.711Z,99972.88
2022-08-19T13:15:15.250Z,99976.44
2022-08-19T13:17:43.331Z,99974.75
2022-08-19T13:20:12.241Z,99979.97
2022-08-19T13:22:40.400Z,99969.13
2022-08-19T13:25:09.265Z,99963.94
2022-08-19T13:27:37.796Z,99975.41
2022-08-19T13:30:26.431Z,99968.94
2022-08-19T13:33:12.490Z,99971.44
2022-08-19T13:35:47.519Z,99975.19
2022-08-19T13:38:19.536Z,99969.34
2022-08-19T13:40:48.221Z,99964.34
2022-08-19T13:43:23.118Z,99964.16
2022-08-19T13:45:56.265Z,99963.50
2022-08-19T13:48:26.299Z,99961.66
2022-08-19T13:50:55.079Z,99963.94
2022-08-19T13:53:23.131Z,99958.53
2022-08-19T13:55:52.053Z,99963.13
2022-08-19T13:58:20.255Z,99961.25
2022-08-19T14:00:49.491Z,99965.59
2022-08-19T14:03:17.427Z,99957.25
2022-08-19T14:05:45.176Z,99977.28
2022-08-19T14:08:15.173Z,99967.69
2022-08-19T14:10:45.369Z,99971.00
2022-08-19T14:13:21.656Z,99969.31
2022-08-19T14:15:50.000Z,99972.25
2022-08-19T14:18:19.478Z,99980.19
2022-08-19T14:20:47.380Z,99973.91
2022-08-19T14:23:15.685Z,99968.91
2022-08-19T14:25:44.763Z,99978.50
2022-08-19T14:28:12.503Z,99982.25
2022-08-19T14:30:40.374Z,99986.84
2022-08-19T14:33:09.488Z,99983.94
2022-08-19T14:35:38.355Z,99985.59
2022-08-19T14:38:07.571Z,99981.19
2022-08-19T14:40:37.043Z,99977.63
2022-08-19T14:43:06.153Z,99978.59
2022-08-19T14:45:37.776Z,99983.84
2022-08-19T14:48:07.310Z,99969.03
2022-08-19T14:50:36.983Z,99975.06
2022-08-19T14:53:12.599Z,99975.91
2022-08-19T14:55:44.927Z,99977.13
2022-08-19T14:58:29.281Z,99972.16
2022-08-19T15:01:00.419Z,99973.13
2022-08-19T15:03:29.766Z,99976.69
2022-08-19T15:05:58.631Z,99977.09
2022-08-19T15:08:28.121Z,99979.97
2022-08-19T15:10:57.743Z,99978.66
2022-08-19T15:13:28.205Z,99988.09
2022-08-19T15:15:56.965Z,99991.09
2022-08-19T15:18:25.069Z,99985.69
2022-08-19T15:20:52.792Z,99981.03
2022-08-19T15:23:22.231Z,99976.00
2022-08-19T15:25:54.439Z,99980.94
2022-08-19T15:28:26.991Z,99983.41
2022-08-19T15:30:54.893Z,99972.19
2022-08-19T15:33:22.842Z,99982.56
2022-08-19T15:35:51.664Z,99979.41
2022-08-19T15:38:22.188Z,99981.69
2022-08-19T15:40:51.617Z,99982.91
2022-08-19T15:43:22.247Z,99977.00
2022-08-19T15:45:49.946Z,99973.66
2022-08-19T15:48:18.077Z,99967.59
2022-08-19T15:50:45.767Z,99964.00
2022-08-19T15:53:13.505Z,99951.47
2022-08-19T15:55:46.161Z,99947.50
2022-08-19T15:58:34.056Z,99947.22
2022-08-19T16:01:24.252Z,99943.06
2022-08-19T16:04:14.986Z,99948.19
2022-08-19T16:06:53.589Z,99956.97
2022-08-19T16:09:27.245Z,99960.69
2022-08-19T16:12:04.857Z,99965.97
2022-08-19T16:14:35.334Z,99960.56
2022-08-19T16:17:03.350Z,99961.06
2022-08-19T16:19:32.081Z,99954.25
2022-08-19T16:21:59.739Z,99955.03
2022-08-19T16:24:28.628Z,99956.69
2022-08-19T16:26:57.439Z,99951.06
2022-08-19T16:29:33.744Z,99960.66
2022-08-19T16:32:10.612Z,99954.91
2022-08-19T16:34:40.261Z,99955.66
2022-08-19T16:37:08.855Z,99947.34
2022-08-19T16:39:36.963Z,99946.03
2022-08-19T16:42:07.475Z,99948.84
2022-08-19T16:44:36.686Z,99940.84
2022-08-19T16:47:04.644Z,99943.16
2022-08-19T16:49:52.416Z,99949.38
2022-08-19T16:52:21.250Z,99954.34
2022-08-19T16:54:49.308Z,99946.34
2022-08-19T16:57:17.129Z,99944.91
2022-08-19T16:59:48.910Z,99950.19
2022-08-19T17:02:19.323Z,99948.47
2022-08-19T17:04:58.527Z,99950.41
2022-08-19T17:07:33.296Z,99947.06
2022-08-19T17:10:03.817Z,99947.16
2022-08-19T17:12:32.510Z,99956.63
2022-08-19T17:15:02.702Z,99949.31
2022-08-19T17:17:31.902Z,99951.66
2022-08-19T17:20:00.675Z,99955.41
2022-08-19T17:22:29.663Z,99954.06
2022-08-19T17:24:58.696Z,99945.69
2022-08-19T17:27:31.369Z,99944.41
2022-08-19T17:30:04.741Z,99955.19
2022-08-19T17:32:34.782Z,99945.94
2022-08-19T17:35:04.703Z,99953.19
2022-08-19T17:37:32.910Z,99952.56
2022-08-19T17:40:01.638Z,99953.28
2022-08-19T17:42:29.967Z,99959.31
2022-08-19T17:45:00.929Z,99960.84
2022-08-19T17:47:29.311Z,99965.22
2022-08-19T17:49:57.926Z,99973.47
2022-08-19T17:52:25.900Z,99982.88
2022-08-19T17:54:53.629Z,99979.34
2022-08-19T17:57:21.567Z,99989.25
2022-08-19T17:59:49.447Z,99990.91
2022-08-19T18:02:17.903Z,99993.03
2022-08-19T18:04:49.829Z,99992.53
2022-08-19T18:07:21.415Z,99998.09
2022-08-19T18:09:52.015Z,100007.31
2022-08-19T18:12:26.693Z,100006.09
2022-08-19T18:14:54.836Z,100005.94
2022-08-19T18:17:24.421Z,100000.53
2022-08-19T18:19:52.648Z,100014.25
2022-08-19T18:22:27.507Z,100028.13
2022-08-19T18:24:57.920Z,100025.84
2022-08-19T18:27:28.862Z,100036.25
2022-08-19T18:29:59.759Z,100035.69
2022-08-19T18:32:34.597Z,100042.16
2022-08-19T18:35:12.012Z,100031.88
2022-08-19T18:37:41.561Z,100037.88
2022-08-19T18:40:30.829Z,100031.88
2022-08-19T18:43:13.853Z,100028.63
2022-08-19T18:46:01.776Z,100028.88
2022-08-19T18:48:59.527Z,100028.75
2022-08-19T18:51:30.494Z,100025.22
2022-08-19T18:53:59.610Z,100024.59
2022-08-19T18:56:32.216Z,100026.75
2022-08-19T18:59:01.910Z,100021.53
2022-08-19T19:01:34.074Z,100021.38
2022-08-19T19:04:07.177Z,100020.53
2022-08-19T19:06:38.106Z,100015.19
2022-08-19T19:09:08.077Z,100006.16
2022-08-19T19:11:39.252Z,100002.19
2022-08-19T19:14:19.209Z,99989.16
2022-08-19T19:17:02.089Z,99992.75
2022-08-19T19:19:32.087Z,99988.63
2022-08-19T19:22:02.583Z,99993.00
2022-08-19T19:24:32.752Z,99994.38
2022-08-19T19:27:06.675Z,99999.28
2022-08-19T19:29:38.591Z,100003.91
2022-08-19T19:32:08.532Z,100015.47
2022-08-19T19:34:38.875Z,100012.72
2022-08-19T19:37:06.862Z,100016.09
2022-08-19T19:39:45.950Z,100014.94
2022-08-19T19:42:20.473Z,100014.75
2022-08-19T19:44:52.939Z,100019.38
2022-08-19T19:47:21.586Z,100023.72
2022-08-19T19:50:13.413Z,100028.00
2022-08-19T19:52:40.819Z,100029.50
2022-08-19T19:55:15.590Z,100027.53
2022-08-19T19:57:49.562Z,100030.69
2022-08-19T20:00:18.866Z,100032.13
2022-08-19T20:02:50.504Z,100037.22
2022-08-19T20:05:21.413Z,100042.47
2022-08-19T20:08:09.882Z,100033.34
2022-08-19T20:10:38.684Z,100035.72
2022-08-19T20:13:08.327Z,100047.69
2022-08-19T20:15:42.176Z,100043.50
2022-08-19T20:18:14.418Z,100046.16
2022-08-19T20:20:44.370Z,100044.34
2022-08-19T20:23:13.017Z,100044.06
2022-08-19T20:25:40.715Z,100044.91
2022-08-19T20:28:09.013Z,100035.03
2022-08-19T20:30:37.757Z,100038.97
2022-08-19T20:33:09.481Z,100042.53
2022-08-19T20:35:38.046Z,100044.94
2022-08-19T20:38:08.624Z,100045.50
2022-08-19T20:40:37.819Z,100048.88
2022-08-19T20:43:13.344Z,100052.00
2022-08-19T20:45:41.442Z,100063.13
2022-08-19T20:48:12.242Z,100068.88
2022-08-19T20:50:40.667Z,100078.22
2022-08-19T20:53:14.112Z,100072.44
2022-08-19T20:55:45.407Z,100063.44
2022-08-19T20:58:13.745Z,100064.44
2022-08-19T21:00:45.563Z,100061.63
2022-08-19T21:03:18.936Z,100071.47
2022-08-19T21:05:47.440Z,100062.47
2022-08-19T21:08:18.260Z,100059.94
2022-08-19T21:10:47.540Z,100067.81
2022-08-19T21:13:16.901Z,100070.78
2022-08-19T21:15:45.546Z,100068.09
2022-08-19T21:18:17.598Z,100076.53
2022-08-19T21:20:46.006Z,100070.91
2022-08-19T21:23:21.142Z,100063.59
2022-08-19T21:25:54.288Z,100065.28
2022-08-19T21:28:29.997Z,100055.28
2022-08-19T21:31:06.324Z,100060.50
2022-08-19T21:33:34.468Z,100065.69
2022-08-19T21:36:03.144Z,100057.84
2022-08-19T21:38:31.928Z,100053.47
2022-08-19T21:41:01.298Z,100051.78
2022-08-19T21:43:35.308Z,100046.72
2022-08-19T21:46:03.424Z,100052.63
2022-08-19T21:48:31.113Z,100057.97
2022-08-19T21:50:59.071Z,100053.47
2022-08-19T21:53:31.614Z,100056.56
2022-08-19T21:56:04.347Z,100056.84
2022-08-19T21:58:33.581Z,100046.97
2022-08-19T22:01:06.060Z,100046.28
2022-08-19T22:03:36.608Z,100045.00
2022-08-19T22:06:04.793Z,100045.28
2022-08-19T22:08:32.544Z,100045.84
2022-08-19T22:11:01.307Z,100035.16
2022-08-19T22:13:30.986Z,100027.72
2022-08-19T22:15:58.596Z,100027.44
2022-08-19T22:18:28.209Z,100025.34
2022-08-19T22:20:56.684Z,100021.41
2022-08-19T22:23:24.333Z,100022.50
2022-08-19T22:25:52.397Z,100016.63
2022-08-19T22:28:27.891Z,100015.50
2022-08-19T22:30:56.430Z,100020.97
2022-08-19T22:33:25.757Z,100025.94
2022-08-19T22:35:53.692Z,100025.94
2022-08-19T22:38:21.881Z,100029.03
2022-08-19T22:40:51.789Z,100036.31
2022-08-19T22:43:26.059Z,100038.81
2022-08-19T22:45:56.037Z,100032.22
2022-08-19T22:48:26.728Z,100028.00
2022-08-19T22:51:14.119Z,100040.50
2022-08-19T22:53:45.024Z,100049.78
2022-08-19T22:56:15.444Z,100045.84
2022-08-19T22:58:44.831Z,100047.69
2022-08-19T23:01:27.183Z,100058.22
2022-08-19T23:03:56.703Z,100059.50
2022-08-19T23:06:31.233Z,100073.81
2022-08-19T23:09:04.674Z,100063.47
2022-08-19T23:11:35.756Z,100071.47
2022-08-19T23:14:10.485Z,100066.97
2022-08-19T23:16:38.248Z,100074.00
2022-08-19T23:19:07.433Z,100068.09
2022-08-19T23:21:36.511Z,100071.47
2022-08-19T23:24:05.260Z,100061.91
2022-08-19T23:26:35.851Z,100068.66
2022-08-19T23:29:24.382Z,100069.78
2022-08-19T23:31:52.360Z,100074.28
2022-08-19T23:34:20.258Z,100078.78
2022-08-19T23:36:50.663Z,100082.44
2022-08-19T23:39:19.262Z,100078.91
2022-08-19T23:41:47.311Z,100075.53
2022-08-19T23:44:15.123Z,100075.38
2022-08-19T23:46:54.471Z,100067.63
2022-08-19T23:49:23.164Z,100072.81
2022-08-19T23:51:50.859Z,100078.72
2022-08-19T23:54:18.578Z,100078.16
2022-08-19T23:56:46.426Z,100077.31
2022-08-19T23:59:14.076Z,100089.09
